Time;durP1;ratioP1;P1;durP2;ratioP2;P2;SDS_P1;SDS_P2;PMS_P1;PMS_P2;Temp;Humidity;BMP_temperature;BMP_pressure;BME280_temperature;BME280_humidity;BME280_pressure;Samples;Min_cycle;Max_cycle;Signal;HPM_P1;HPM_P2
2023/10/20 00:01:45;;;;;;;3.80;2.40;;;18.90;62.40;;;;;;5128083;27;45297;-70
2023/10/20 00:04:13;;;;;;;5.28;2.42;;;19.00;62.40;;;;;;5128355;27;45333;-71
2023/10/20 00:06:40;;;;;;;2.90;2.28;;;18.90;62.30;;;;;;5127912;27;45326;-71
2023/10/20 00:09:08;;;;;;;2.22;2.03;;;18.90;63.10;;;;;;5108319;27;46421;-71
2023/10/20 00:11:36;;;;;;;2.20;1.98;;;18.90;62.40;;;;;;5107516;27;45328;-71
2023/10/20 00:14:03;;;;;;;2.78;2.30;;;18.90;62.30;;;;;;5107330;27;45320;-71
2023/10/20 00:16:29;;;;;;;3.10;2.00;;;18.90;62.30;;;;;;5106547;27;45497;-70
2023/10/20 00:18:57;;;;;;;2.58;2.05;;;18.90;62.40;;;;;;5106956;27;46304;-71
2023/10/20 00:21:24;;;;;;;2.63;2.40;;;18.90;62.30;;;;;;5106826;27;45397;-71
2023/10/20 00:23:51;;;;;;;2.97;2.20;;;18.90;62.30;;;;;;5107313;27;45352;-71
2023/10/20 00:26:19;;;;;;;2.60;2.40;;;18.90;62.40;;;;;;5106985;27;45384;-71
2023/10/20 00:28:46;;;;;;;2.20;2.00;;;18.90;62.20;;;;;;5106770;27;45456;-71
2023/10/20 00:31:13;;;;;;;2.33;2.13;;;18.90;62.30;;;;;;5106711;27;45346;-71
2023/10/20 00:33:40;;;;;;;2.45;2.08;;;18.90;62.30;;;;;;5106858;27;45354;-72
2023/10/20 00:36:08;;;;;;;2.95;2.38;;;18.90;62.40;;;;;;5114685;27;45403;-73
2023/10/20 00:38:35;;;;;;;2.92;2.35;;;18.90;62.30;;;;;;5127443;27;45320;-71
2023/10/20 00:41:01;;;;;;;2.35;2.05;;;18.80;62.30;;;;;;5127559;27;45280;-72
2023/10/20 00:43:36;;;;;;;3.45;2.35;;;18.80;62.30;;;;;;5127526;27;45271;-71
2023/10/20 00:46:04;;;;;;;2.00;1.80;;;18.80;62.20;;;;;;5127700;27;45272;-71
2023/10/20 00:48:31;;;;;;;2.35;2.15;;;18.80;62.20;;;;;;5130070;27;46458;-71
2023/10/20 00:50:57;;;;;;;2.35;2.15;;;18.80;62.20;;;;;;5131172;27;45271;-71
2023/10/20 00:53:25;;;;;;;2.47;2.10;;;18.80;62.20;;;;;;5130623;27;45280;-71
2023/10/20 00:55:52;;;;;;;3.97;2.55;;;18.80;62.20;;;;;;5131046;27;45565;-70
2023/10/20 00:58:19;;;;;;;3.05;2.28;;;18.80;62.20;;;;;;5130800;27;46410;-71
2023/10/20 01:00:47;;;;;;;3.72;2.53;;;18.80;62.10;;;;;;5130758;27;45444;-71
2023/10/20 01:03:14;;;;;;;2.50;2.30;;;18.80;62.20;;;;;;5131435;27;45315;-71
2023/10/20 01:05:40;;;;;;;3.05;2.00;;;18.80;62.10;;;;;;5130792;27;45290;-70
2023/10/20 01:08:08;;;;;;;2.42;2.20;;;18.80;62.10;;;;;;5130630;27;45349;-71
2023/10/20 01:10:35;;;;;;;2.17;1.98;;;18.80;62.10;;;;;;5130566;27;45361;-71
2023/10/20 01:13:02;;;;;;;2.15;1.95;;;18.80;62.00;;;;;;5130662;27;45413;-70
2023/10/20 01:15:29;;;;;;;2.78;2.17;;;18.80;62.00;;;;;;5131001;27;45278;-71
2023/10/20 01:17:57;;;;;;;2.25;2.05;;;18.80;61.90;;;;;;5130451;27;46278;-70
2023/10/20 01:20:24;;;;;;;2.13;1.98;;;18.80;61.90;;;;;;5130354;27;45320;-71
2023/10/20 01:22:50;;;;;;;2.45;2.20;;;18.80;62.20;;;;;;5129814;27;45274;-70
2023/10/20 01:25:19;;;;;;;2.42;2.22;;;18.80;61.90;;;;;;5130527;27;45493;-71
2023/10/20 01:27:46;;;;;;;2.08;1.92;;;18.80;61.90;;;;;;5130437;27;47553;-70
2023/10/20 01:30:13;;;;;;;1.83;1.70;;;18.80;62.10;;;;;;5130243;27;45266;-71
2023/10/20 01:32:40;;;;;;;2.33;2.13;;;18.80;61.90;;;;;;5130261;27;45375;-70
2023/10/20 01:35:08;;;;;;;2.58;1.92;;;18.80;61.90;;;;;;5130692;27;45393;-70
2023/10/20 01:37:35;;;;;;;2.38;1.95;;;18.80;61.90;;;;;;5109597;27;46274;-70
2023/10/20 01:40:02;;;;;;;3.20;2.10;;;18.80;61.90;;;;;;5109572;27;45267;-70
2023/10/20 01:42:30;;;;;;;2.13;1.92;;;18.70;61.90;;;;;;5109603;27;45264;-70
2023/10/20 01:44:57;;;;;;;2.35;1.80;;;18.70;61.80;;;;;;5110028;27;45419;-70
2023/10/20 01:47:24;;;;;;;2.00;1.85;;;18.80;61.70;;;;;;5109238;27;46746;-70
2023/10/20 01:49:51;;;;;;;1.60;1.50;;;18.70;61.70;;;;;;5109342;27;45319;-70
2023/10/20 01:52:18;;;;;;;2.63;2.10;;;18.70;61.70;;;;;;5109590;27;45387;-70
2023/10/20 01:54:45;;;;;;;2.45;1.90;;;18.80;61.80;;;;;;5109463;27;45383;-70
2023/10/20 01:57:12;;;;;;;2.42;2.10;;;18.70;61.70;;;;;;5108954;27;45435;-70
2023/10/20 01:59:40;;;;;;;2.47;1.88;;;18.70;61.60;;;;;;5105147;27;45337;-70
2023/10/20 02:02:07;;;;;;;2.75;2.00;;;18.70;61.60;;;;;;5109262;27;45379;-70
2023/10/20 02:04:34;;;;;;;2.25;2.05;;;18.70;61.70;;;;;;5109580;27;45398;-71
2023/10/20 02:07:01;;;;;;;3.10;2.20;;;18.70;61.80;;;;;;5109686;27;45375;-70
2023/10/20 02:09:28;;;;;;;2.78;2.30;;;18.70;61.70;;;;;;5129516;27;45307;-70
2023/10/20 02:11:57;;;;;;;2.65;2.22;;;18.70;61.70;;;;;;5130033;27;45316;-70
2023/10/20 02:14:24;;;;;;;2.85;1.90;;;18.70;61.70;;;;;;5129918;27;45230;-70
2023/10/20 02:16:51;;;;;;;2.00;1.80;;;18.70;61.60;;;;;;5129433;27;46556;-70
2023/10/20 02:19:18;;;;;;;2.03;1.73;;;18.70;61.70;;;;;;5129760;27;45353;-70
2023/10/20 02:21:47;;;;;;;3.00;2.00;;;18.70;61.70;;;;;;5129684;27;45313;-70
2023/10/20 02:24:13;;;;;;;2.67;2.00;;;18.70;61.70;;;;;;5129757;27;45310;-70
2023/10/20 02:26:40;;;;;;;2.08;1.88;;;18.70;61.70;;;;;;5129232;27;45797;-70
2023/10/20 02:29:07;;;;;;;1.73;1.60;;;18.70;61.70;;;;;;5129276;27;45377;-70
2023/10/20 02:31:34;;;;;;;2.65;1.88;;;18.70;61.70;;;;;;5129559;27;45239;-70
2023/10/20 02:34:02;;;;;;;1.85;1.67;;;18.70;61.60;;;;;;5130109;27;45407;-70
2023/10/20 02:36:30;;;;;;;2.47;1.80;;;18.70;61.50;;;;;;5129080;27;46525;-70
2023/10/20 02:38:57;;;;;;;1.77;1.48;;;18.70;61.60;;;;;;5129228;27;45599;-70
2023/10/20 02:41:24;;;;;;;2.40;1.90;;;18.70;61.50;;;;;;5129445;27;45313;-70
2023/10/20 02:43:50;;;;;;;1.58;1.45;;;18.70;61.50;;;;;;5129366;27;45306;-70
2023/10/20 02:46:17;;;;;;;1.83;1.55;;;18.70;61.50;;;;;;5128763;27;46837;-71
2023/10/20 02:48:44;;;;;;;1.75;1.65;;;18.70;61.50;;;;;;5129101;27;45392;-69
2023/10/20 02:51:13;;;;;;;2.13;1.70;;;18.70;61.50;;;;;;5128423;27;45289;-70
2023/10/20 02:53:40;;;;;;;2.22;1.77;;;18.70;61.40;;;;;;5129231;27;45437;-70
2023/10/20 02:56:13;;;;;;;1.65;1.55;;;18.70;62.10;;;;;;5128580;27;46359;-70
2023/10/20 02:58:40;;;;;;;2.10;1.90;;;18.70;61.30;;;;;;5129009;27;45329;-70
2023/10/20 03:01:07;;;;;;;2.00;1.77;;;18.70;61.40;;;;;;5128787;27;45329;-70
2023/10/20 03:03:34;;;;;;;1.90;1.73;;;18.70;61.40;;;;;;5129096;27;45357;-70
2023/10/20 03:06:01;;;;;;;1.52;1.40;;;18.70;61.30;;;;;;5128461;27;46337;-70
2023/10/20 03:08:30;;;;;;;2.72;1.70;;;18.70;61.30;;;;;;5114370;27;45383;-71
2023/10/20 03:10:57;;;;;;;2.25;1.48;;;18.70;61.40;;;;;;5107934;27;45299;-70
2023/10/20 03:13:24;;;;;;;2.75;1.80;;;18.70;61.30;;;;;;5108375;27;45260;-70
2023/10/20 03:15:51;;;;;;;1.95;1.58;;;18.70;61.40;;;;;;5108030;27;47585;-70
2023/10/20 03:18:17;;;;;;;1.50;1.40;;;18.70;61.30;;;;;;5107958;27;45322;-71
2023/10/20 03:20:44;;;;;;;1.58;1.42;;;18.70;61.20;;;;;;5108161;27;45172;-70
2023/10/20 03:23:11;;;;;;;2.80;1.70;;;18.70;61.30;;;;;;5108147;27;45387;-70
2023/10/20 03:25:40;;;;;;;1.80;1.48;;;18.70;62.00;;;;;;5107721;27;45967;-70
2023/10/20 03:28:07;;;;;;;2.00;1.50;;;18.70;61.40;;;;;;5107862;27;45229;-70
2023/10/20 03:30:38;;;;;;;2.10;1.48;;;18.60;61.50;;;;;;5107953;27;45366;-70
2023/10/20 03:33:05;;;;;;;1.77;1.48;;;18.60;61.50;;;;;;5107892;27;45347;-70
2023/10/20 03:35:32;;;;;;;1.48;1.38;;;18.60;61.30;;;;;;5110472;27;45498;-70
2023/10/20 03:38:00;;;;;;;1.75;1.30;;;18.60;61.50;;;;;;5127475;27;45320;-70
2023/10/20 03:40:30;;;;;;;3.83;1.33;;;18.70;62.20;;;;;;5128051;27;45269;-70
2023/10/20 03:42:59;;;;;;;1.58;1.48;;;18.60;61.40;;;;;;5128274;27;45213;-70
2023/10/20 03:45:25;;;;;;;1.30;1.20;;;18.70;61.40;;;;;;5128375;27;47495;-70
2023/10/20 03:47:53;;;;;;;1.40;1.30;;;18.70;61.40;;;;;;5127966;27;45363;-70
2023/10/20 03:50:20;;;;;;;1.33;1.23;;;18.70;62.00;;;;;;5128344;27;45382;-70
2023/10/20 03:52:48;;;;;;;1.60;1.50;;;18.60;61.30;;;;;;5128324;27;45533;-70
2023/10/20 03:55:15;;;;;;;1.88;1.77;;;18.60;61.40;;;;;;5127873;27;46646;-70
2023/10/20 03:57:42;;;;;;;1.95;1.63;;;18.60;61.20;;;;;;5127858;27;45356;-70
2023/10/20 04:00:28;;;;;;;2.97;1.33;;;18.70;61.30;;;;;;5127875;27;45332;-70
2023/10/20 04:02:55;;;;;;;1.30;1.20;;;18.70;61.30;;;;;;5128453;27;45543;-70
2023/10/20 04:05:22;;;;;;;1.23;1.10;;;18.70;61.20;;;;;;5127818;27;46525;-70
2023/10/20 04:07:49;;;;;;;1.20;0.98;;;18.70;61.10;;;;;;5119145;27;45285;-70
2023/10/20 04:10:18;;;;;;;1.58;1.20;;;18.70;61.10;;;;;;5107398;27;45389;-70
2023/10/20 04:12:45;;;;;;;1.30;1.20;;;18.70;61.10;;;;;;5107448;27;45339;-70
2023/10/20 04:15:15;;;;;;;1.40;1.30;;;18.70;61.00;;;;;;5107363;27;46593;-70
2023/10/20 04:17:44;;;;;;;1.48;1.33;;;18.70;61.10;;;;;;5107141;27;45346;-70
2023/10/20 04:20:17;;;;;;;1.33;1.30;;;18.60;61.10;;;;;;5107240;27;45381;-70
2023/10/20 04:22:46;;;;;;;1.55;1.35;;;18.60;61.10;;;;;;5108570;27;45278;-70
2023/10/20 04:25:15;;;;;;;1.30;1.20;;;18.60;61.00;;;;;;5110711;27;45742;-70
2023/10/20 04:27:48;;;;;;;2.35;1.33;;;18.60;61.10;;;;;;5110584;27;45338;-70
2023/10/20 04:50:15;;;;;;;2.25;1.35;;;18.60;60.80;;;;;;5130695;27;45358;-70
2023/10/20 04:52:55;;;;;;;2.70;1.25;;;18.60;60.90;;;;;;5131452;27;45310;-70
2023/10/20 04:58:12;;;;;;;1.10;1.00;;;18.60;61.20;;;;;;5128167;27;45352;-70
2023/10/20 05:00:41;;;;;;;1.40;1.30;;;18.60;61.20;;;;;;5130902;27;45314;-70
2023/10/20 05:03:30;;;;;;;1.50;1.40;;;18.60;61.00;;;;;;5130963;27;45411;-70
2023/10/20 05:06:14;;;;;;;1.98;1.08;;;18.60;60.90;;;;;;5131279;27;45377;-70
2023/10/20 05:08:41;;;;;;;1.35;1.25;;;18.60;60.80;;;;;;5114189;27;46691;-70
2023/10/20 05:11:08;;;;;;;1.05;1.00;;;18.60;60.80;;;;;;5109970;27;45372;-70
2023/10/20 05:13:35;;;;;;;1.42;1.33;;;18.60;61.50;;;;;;5110113;27;45278;-70
2023/10/20 05:16:02;;;;;;;1.38;1.27;;;18.60;60.90;;;;;;5110192;27;45332;-70
2023/10/20 05:18:31;;;;;;;1.95;1.10;;;18.50;61.10;;;;;;5109833;27;46959;-70
2023/10/20 05:21:04;;;;;;;1.20;1.10;;;18.50;61.10;;;;;;5109876;27;45362;-71
2023/10/20 05:23:31;;;;;;;1.67;1.33;;;18.50;61.10;;;;;;5110011;27;45378;-69
2023/10/20 05:25:58;;;;;;;2.00;1.05;;;18.50;61.20;;;;;;5109802;27;45434;-69
2023/10/20 05:28:24;;;;;;;1.40;1.23;;;18.50;61.20;;;;;;5109421;27;45379;-70
2023/10/20 05:30:51;;;;;;;1.10;1.00;;;18.50;61.10;;;;;;5109871;27;45256;-70
2023/10/20 05:33:18;;;;;;;3.20;1.30;;;18.50;61.10;;;;;;5108989;27;45311;-71
2023/10/20 05:35:48;;;;;;;1.25;1.15;;;18.50;61.10;;;;;;5114209;27;45463;-70
2023/10/20 05:38:15;;;;;;;1.30;1.20;;;18.50;61.00;;;;;;5130033;27;47358;-70
2023/10/20 05:40:42;;;;;;;1.30;1.20;;;18.50;61.20;;;;;;5130523;27;45282;-70
2023/10/20 05:43:09;;;;;;;1.40;1.30;;;18.50;61.30;;;;;;5130224;27;45430;-70
2023/10/20 05:45:39;;;;;;;1.02;1.02;;;18.50;61.40;;;;;;5130336;27;45380;-69
2023/10/20 05:48:07;;;;;;;1.05;1.05;;;18.50;61.10;;;;;;5129740;27;47231;-70
2023/10/20 05:50:37;;;;;;;1.08;1.08;;;18.50;61.10;;;;;;5129445;27;45333;-69
2023/10/20 05:53:06;;;;;;;1.10;1.05;;;18.50;62.20;;;;;;5129561;27;45619;-70
2023/10/20 05:55:33;;;;;;;0.98;0.98;;;18.40;61.10;;;;;;5129913;27;45330;-70
2023/10/20 05:58:00;;;;;;;1.13;1.02;;;18.40;61.30;;;;;;5129832;27;46743;-70
2023/10/20 06:00:27;;;;;;;1.00;1.00;;;18.40;61.30;;;;;;5129467;27;45417;-70
2023/10/20 06:02:54;;;;;;;1.17;1.08;;;18.40;61.10;;;;;;5130117;27;45263;-70
2023/10/20 06:05:22;;;;;;;1.42;1.25;;;18.50;61.10;;;;;;5129719;27;45569;-70
2023/10/20 06:07:49;;;;;;;1.90;1.20;;;18.40;61.30;;;;;;5120781;27;45423;-70
2023/10/20 06:10:22;;;;;;;1.25;1.00;;;18.40;61.30;;;;;;5108926;27;45430;-70
2023/10/20 06:12:53;;;;;;;1.15;1.08;;;18.40;61.20;;;;;;5109341;27;45427;-70
2023/10/20 06:15:20;;;;;;;1.38;1.08;;;18.40;61.20;;;;;;5109270;27;45310;-70
2023/10/20 06:17:47;;;;;;;1.08;1.00;;;18.40;61.30;;;;;;5108637;27;46671;-70
2023/10/20 06:20:14;;;;;;;1.30;1.20;;;18.40;61.20;;;;;;5108869;27;45272;-70
2023/10/20 06:22:42;;;;;;;1.08;0.95;;;18.40;61.10;;;;;;5108654;27;45197;-70
2023/10/20 06:25:12;;;;;;;3.42;1.08;;;18.40;61.00;;;;;;5108937;27;45293;-70
2023/10/20 06:27:42;;;;;;;3.03;1.40;;;18.50;61.10;;;;;;5108664;27;45394;-70
2023/10/20 06:30:14;;;;;;;1.00;1.00;;;18.50;61.10;;;;;;5108500;27;45330;-69
2023/10/20 06:32:43;;;;;;;1.10;1.10;;;18.50;61.00;;;;;;5108463;27;45221;-70
2023/10/20 06:35:12;;;;;;;1.20;1.10;;;18.40;61.10;;;;;;5108932;27;45283;-70
2023/10/20 06:37:46;;;;;;;1.33;1.23;;;18.50;61.30;;;;;;5108405;27;45272;-70
2023/10/20 06:40:15;;;;;;;1.48;1.20;;;18.40;61.30;;;;;;5108705;27;45319;-70
2023/10/20 06:42:44;;;;;;;1.52;1.40;;;18.40;61.10;;;;;;5108632;27;45467;-70
2023/10/20 06:45:11;;;;;;;1.23;1.13;;;18.50;61.00;;;;;;5107748;27;45587;-69
2023/10/20 06:47:39;;;;;;;0.90;0.90;;;18.50;61.00;;;;;;5107245;27;46778;-70
2023/10/20 06:50:07;;;;;;;1.40;1.30;;;18.40;60.80;;;;;;5108164;27;45374;-70
2023/10/20 06:52:35;;;;;;;1.38;1.27;;;18.50;61.10;;;;;;5108372;27;45470;-70
2023/10/20 06:55:02;;;;;;;1.38;1.23;;;18.40;61.10;;;;;;5108397;27;45419;-71
2023/10/20 06:57:29;;;;;;;1.25;1.15;;;18.40;61.20;;;;;;5107839;27;46394;-70
2023/10/20 06:59:57;;;;;;;1.15;1.10;;;18.40;60.90;;;;;;5107853;27;45369;-70
2023/10/20 07:02:24;;;;;;;1.20;1.10;;;18.40;61.00;;;;;;5108396;27;45289;-70
2023/10/20 07:04:51;;;;;;;1.20;1.17;;;18.40;60.80;;;;;;5108179;27;45486;-70
2023/10/20 07:07:18;;;;;;;1.45;1.23;;;18.40;61.00;;;;;;5111877;27;45310;-70
2023/10/20 07:09:45;;;;;;;1.02;0.80;;;18.40;61.20;;;;;;5128647;27;45419;-70
2023/10/20 07:12:13;;;;;;;1.27;1.10;;;18.40;61.00;;;;;;5125929;27;45351;-70
2023/10/20 07:14:40;;;;;;;1.58;1.13;;;18.40;61.00;;;;;;5128667;27;45276;-71
2023/10/20 07:17:09;;;;;;;1.55;1.05;;;18.40;61.00;;;;;;5128161;27;45542;-70
2023/10/20 07:19:35;;;;;;;1.00;1.00;;;18.40;60.80;;;;;;5128619;27;45423;-70
2023/10/20 07:22:03;;;;;;;1.42;1.13;;;18.40;60.90;;;;;;5128437;27;45237;-70
2023/10/20 07:24:30;;;;;;;1.30;1.20;;;18.40;60.90;;;;;;5128715;27;45295;-70
2023/10/20 07:26:57;;;;;;;1.20;1.10;;;18.40;60.90;;;;;;5128049;27;45321;-70
2023/10/20 07:29:24;;;;;;;1.33;1.23;;;18.40;60.70;;;;;;5127950;27;45324;-70
2023/10/20 07:31:51;;;;;;;1.15;1.05;;;18.40;60.90;;;;;;5127218;27;45320;-70
2023/10/20 07:34:20;;;;;;;1.30;1.20;;;18.40;60.90;;;;;;5128692;27;45286;-70
2023/10/20 07:36:48;;;;;;;1.10;1.05;;;18.40;60.90;;;;;;5114758;27;46721;-70
2023/10/20 07:39:17;;;;;;;1.42;1.10;;;18.40;61.10;;;;;;5107493;27;45290;-70
2023/10/20 07:41:44;;;;;;;0.98;0.98;;;18.40;61.10;;;;;;5108110;27;45404;-70
2023/10/20 07:44:15;;;;;;;2.30;1.10;;;18.40;61.10;;;;;;5107978;27;45527;-70
2023/10/20 07:46:43;;;;;;;1.10;1.05;;;18.40;61.00;;;;;;5106958;27;45415;-70
2023/10/20 07:49:15;;;;;;;1.45;1.20;;;18.40;60.90;;;;;;5107764;27;45342;-70
2023/10/20 07:52:01;;;;;;;0.98;0.93;;;18.40;61.00;;;;;;5108089;27;45320;-70
2023/10/20 07:54:29;;;;;;;1.20;1.10;;;18.40;61.00;;;;;;5108104;27;45565;-70
2023/10/20 07:57:03;;;;;;;1.20;1.10;;;18.40;61.00;;;;;;5107611;27;45305;-70
2023/10/20 07:59:34;;;;;;;1.10;1.00;;;18.40;60.80;;;;;;5107658;27;45256;-70
2023/10/20 08:02:10;;;;;;;1.23;1.17;;;18.50;60.90;;;;;;5107489;27;45248;-70
2023/10/20 08:04:38;;;;;;;2.33;1.30;;;18.50;60.80;;;;;;5107909;27;45472;-71
2023/10/20 08:07:07;;;;;;;1.42;1.30;;;18.40;60.80;;;;;;5109121;27;45332;-70
2023/10/20 08:09:36;;;;;;;1.25;1.10;;;18.50;60.80;;;;;;5127897;27;45285;-71
2023/10/20 08:12:03;;;;;;;1.40;1.30;;;18.50;60.80;;;;;;5127774;27;45500;-69
2023/10/20 08:14:30;;;;;;;2.00;1.25;;;18.50;61.10;;;;;;5128395;27;45363;-69
2023/10/20 08:16:57;;;;;;;1.35;1.23;;;18.50;61.10;;;;;;5127613;27;45332;-68
2023/10/20 08:19:25;;;;;;;1.92;1.48;;;18.50;61.30;;;;;;5127622;27;45301;-68
2023/10/20 08:21:51;;;;;;;1.52;1.42;;;18.50;61.50;;;;;;5127587;27;45229;-68
2023/10/20 08:24:20;;;;;;;1.30;1.20;;;18.50;61.10;;;;;;5127659;27;45405;-68
2023/10/20 08:26:46;;;;;;;1.40;1.30;;;18.60;61.40;;;;;;5127070;27;46462;-69
2023/10/20 08:29:13;;;;;;;1.75;1.50;;;18.60;61.40;;;;;;5127552;27;45234;-74
2023/10/20 08:31:40;;;;;;;4.07;1.63;;;18.60;63.00;;;;;;5127210;27;45279;-78
2023/10/20 08:34:07;;;;;;;5.70;2.08;;;18.60;63.60;;;;;;5127287;27;45388;-71
2023/10/20 08:36:34;;;;;;;3.65;2.30;;;18.70;65.00;;;;;;5125861;27;45376;-70
2023/10/20 08:39:13;;;;;;;2.15;1.85;;;18.70;65.00;;;;;;5128065;27;45387;-75
2023/10/20 08:41:43;;;;;;;6.13;3.75;;;18.80;64.70;;;;;;5128147;27;45318;-75
2023/10/20 08:44:10;;;;;;;17.02;7.47;;;18.90;65.70;;;;;;5127746;27;45263;-70
2023/10/20 08:46:37;;;;;;;14.88;5.18;;;18.90;65.60;;;;;;5127428;27;45440;-72
2023/10/20 08:49:05;;;;;;;15.45;5.60;;;18.90;65.50;;;;;;5130632;27;45301;-72
2023/10/20 08:51:32;;;;;;;8.10;5.28;;;19.00;65.50;;;;;;5130348;27;45271;-74
2023/10/20 08:53:59;;;;;;;9.63;4.18;;;19.10;65.10;;;;;;5134425;27;45545;-74
2023/10/20 08:56:35;;;;;;;5.25;3.35;;;19.10;65.30;;;;;;5133589;27;45479;-76
2023/10/20 08:59:05;;;;;;;12.27;3.33;;;19.10;64.80;;;;;;5135914;27;45350;-75
2023/10/20 09:01:32;;;;;;;5.68;3.20;;;19.20;64.40;;;;;;5135250;27;45236;-80
2023/10/20 09:04:00;;;;;;;8.52;3.72;;;19.10;63.90;;;;;;5128335;27;45412;-75
2023/10/20 09:06:27;;;;;;;7.43;3.92;;;19.10;63.70;;;;;;5128304;27;46898;-75
2023/10/20 09:08:57;;;;;;;8.27;3.53;;;19.20;63.30;;;;;;5112085;27;45343;-76
2023/10/20 09:11:30;;;;;;;5.75;3.10;;;19.20;63.50;;;;;;5114119;27;45317;-76
2023/10/20 09:13:57;;;;;;;3.85;2.65;;;19.20;63.10;;;;;;5110321;27;45188;-74
2023/10/20 09:16:26;;;;;;;6.70;2.92;;;19.20;63.20;;;;;;5130949;27;46710;-74
2023/10/20 09:19:00;;;;;;;5.43;2.70;;;19.20;63.10;;;;;;5120771;27;45365;-75
2023/10/20 09:24:20;;;;;;;7.80;2.70;;;19.30;63.00;;;;;;5098745;27;45465;-75
2023/10/20 09:26:51;;;;;;;7.57;3.08;;;19.30;62.70;;;;;;5111517;27;46317;-73
2023/10/20 09:29:31;;;;;;;3.78;2.67;;;19.30;62.70;;;;;;5113206;27;45314;-75
2023/10/20 09:32:05;;;;;;;11.95;3.08;;;19.30;63.00;;;;;;5111277;27;45475;-75
2023/10/20 09:37:21;;;;;;;4.15;2.60;;;19.30;62.90;;;;;;5088295;27;45332;-75
2023/10/20 09:39:50;;;;;;;5.57;2.33;;;19.30;62.70;;;;;;5093665;27;45535;-75
2023/10/20 09:42:20;;;;;;;4.75;2.28;;;19.30;62.50;;;;;;5092366;27;45398;-75
2023/10/20 09:44:48;;;;;;;4.07;2.47;;;19.30;62.50;;;;;;5089821;27;45119;-75
2023/10/20 09:47:20;;;;;;;4.88;2.50;;;19.30;62.50;;;;;;5088322;27;46264;-76
2023/10/20 09:49:52;;;;;;;4.70;2.00;;;19.30;62.60;;;;;;5088078;27;45283;-75
2023/10/20 09:52:20;;;;;;;10.52;2.80;;;19.30;62.60;;;;;;5088645;27;45330;-76
2023/10/20 09:54:50;;;;;;;4.72;2.47;;;19.30;62.80;;;;;;5087304;27;45234;-74
2023/10/20 09:57:20;;;;;;;6.00;2.35;;;19.30;62.70;;;;;;5088799;27;46685;-76
2023/10/20 09:59:52;;;;;;;4.57;2.00;;;19.30;62.70;;;;;;5089011;27;45302;-76
2023/10/20 10:02:31;;;;;;;4.15;1.90;;;19.30;62.90;;;;;;5089345;27;45346;-76
2023/10/20 10:04:58;;;;;;;5.55;2.30;;;19.30;62.90;;;;;;5089281;27;45387;-77
2023/10/20 10:07:49;;;;;;;4.55;2.13;;;19.30;63.10;;;;;;5093625;27;45301;-75
2023/10/20 10:10:20;;;;;;;8.82;2.88;;;19.30;63.20;;;;;;5108735;27;45342;-75
2023/10/20 10:12:57;;;;;;;5.93;2.17;;;19.30;63.30;;;;;;5109521;27;45378;-74
2023/10/20 10:15:36;;;;;;;7.65;1.88;;;19.30;63.50;;;;;;5109627;27;45248;-76
2023/10/20 10:18:09;;;;;;;5.25;1.98;;;19.40;63.60;;;;;;5109199;27;45630;-77
2023/10/20 10:20:42;;;;;;;6.85;2.60;;;19.40;63.50;;;;;;5108237;27;45143;-76
2023/10/20 10:23:10;;;;;;;4.30;1.90;;;19.40;63.60;;;;;;5116156;27;45389;-76
2023/10/20 10:25:37;;;;;;;9.93;2.50;;;19.40;63.70;;;;;;5114772;27;45259;-74
2023/10/20 10:28:11;;;;;;;4.50;1.83;;;19.40;64.40;;;;;;5112597;27;46995;-75
2023/10/20 10:30:38;;;;;;;5.32;2.20;;;19.40;63.90;;;;;;5111389;27;45366;-76
2023/10/20 10:33:08;;;;;;;13.10;2.20;;;19.40;63.80;;;;;;5124370;27;45357;-77
2023/10/20 10:35:38;;;;;;;6.35;2.47;;;19.40;63.90;;;;;;5133896;27;45256;-76
2023/10/20 10:38:06;;;;;;;4.63;2.05;;;19.40;63.90;;;;;;5117071;27;45312;-76
2023/10/20 10:40:34;;;;;;;11.57;2.10;;;19.40;64.10;;;;;;5109026;27;45459;-78
2023/10/20 10:43:01;;;;;;;6.95;1.77;;;19.40;63.70;;;;;;5111029;27;45315;-79
2023/10/20 10:45:30;;;;;;;5.20;1.60;;;19.40;64.10;;;;;;5115429;27;45294;-76
2023/10/20 10:48:05;;;;;;;3.05;1.67;;;19.50;64.30;;;;;;5126508;27;46244;-77
2023/10/20 10:50:33;;;;;;;1.88;1.45;;;19.50;64.10;;;;;;5126856;27;45221;-77
2023/10/20 10:53:00;;;;;;;6.60;1.50;;;19.50;63.80;;;;;;5126501;27;45310;-77
2023/10/20 10:55:27;;;;;;;5.80;1.85;;;19.40;63.50;;;;;;5127335;27;45185;-77
2023/10/20 10:57:54;;;;;;;7.43;1.83;;;19.50;63.20;;;;;;5127089;27;45484;-77
2023/10/20 11:00:21;;;;;;;2.15;1.77;;;19.40;63.20;;;;;;5127328;27;45343;-76
2023/10/20 11:02:48;;;;;;;5.07;1.63;;;19.40;63.10;;;;;;5127837;27;45390;-76
2023/10/20 11:05:15;;;;;;;5.53;1.95;;;19.40;63.10;;;;;;5128972;27;45524;-76
2023/10/20 11:08:01;;;;;;;2.78;1.60;;;19.50;62.70;;;;;;5135765;27;45203;-77
2023/10/20 11:10:28;;;;;;;3.97;1.58;;;19.50;62.80;;;;;;5149524;27;45201;-77
2023/10/20 11:12:55;;;;;;;5.65;1.80;;;19.40;62.50;;;;;;5150278;27;44764;-76
2023/10/20 11:15:22;;;;;;;3.15;1.77;;;19.40;63.40;;;;;;5149680;27;45369;-77
2023/10/20 11:17:49;;;;;;;4.03;1.50;;;19.50;62.50;;;;;;5149007;27;45475;-77
2023/10/20 11:20:20;;;;;;;4.65;1.50;;;19.40;62.40;;;;;;5149543;27;44737;-76
2023/10/20 11:22:53;;;;;;;3.17;1.40;;;19.40;62.80;;;;;;5149538;27;44791;-76
2023/10/20 11:25:20;;;;;;;3.20;1.80;;;19.40;62.60;;;;;;5149672;27;45220;-75
2023/10/20 11:27:53;;;;;;;5.03;1.10;;;19.40;62.40;;;;;;5149756;27;45744;-76
2023/10/20 11:30:24;;;;;;;2.38;1.50;;;19.40;62.40;;;;;;5150532;27;45397;-75
2023/10/20 11:32:50;;;;;;;1.73;1.40;;;19.40;62.30;;;;;;5149513;27;44692;-75
2023/10/20 11:35:17;;;;;;;2.40;1.38;;;19.40;62.30;;;;;;5150915;27;44789;-76
2023/10/20 11:37:46;;;;;;;2.13;1.30;;;19.40;62.30;;;;;;5127304;27;44970;-76
2023/10/20 11:40:14;;;;;;;1.60;1.50;;;19.30;62.40;;;;;;5130156;27;44767;-76
2023/10/20 11:42:41;;;;;;;1.65;1.42;;;19.30;62.30;;;;;;5129799;27;44669;-75
2023/10/20 11:45:10;;;;;;;3.72;1.88;;;19.30;62.20;;;;;;5130510;27;44919;-75
2023/10/20 11:47:37;;;;;;;2.72;1.33;;;19.30;62.10;;;;;;5129625;27;46274;-75
2023/10/20 11:50:04;;;;;;;1.27;1.27;;;19.30;62.10;;;;;;5129323;27;44709;-75
2023/10/20 11:52:31;;;;;;;2.88;1.77;;;19.30;62.00;;;;;;5129448;27;45217;-76
2023/10/20 11:55:00;;;;;;;2.33;1.40;;;19.30;62.10;;;;;;5127990;27;45156;-76
2023/10/20 11:57:28;;;;;;;2.70;1.60;;;19.30;62.00;;;;;;5127948;27;45353;-76
2023/10/20 11:59:55;;;;;;;2.75;1.40;;;19.30;62.00;;;;;;5127253;27;45546;-76
2023/10/20 12:02:22;;;;;;;3.72;1.63;;;19.30;62.00;;;;;;5128271;27;45180;-76
2023/10/20 12:04:49;;;;;;;4.07;1.60;;;19.30;62.00;;;;;;5125679;27;45429;-77
2023/10/20 12:07:16;;;;;;;2.60;1.35;;;19.30;62.00;;;;;;5132174;27;45437;-77
2023/10/20 12:09:43;;;;;;;2.25;1.60;;;19.30;62.00;;;;;;5145978;27;44798;-76
2023/10/20 12:12:10;;;;;;;4.30;1.75;;;19.30;61.90;;;;;;5147794;27;45308;-76
2023/10/20 12:14:38;;;;;;;2.65;1.42;;;19.30;62.00;;;;;;5149431;27;44685;-76
2023/10/20 12:17:05;;;;;;;2.58;1.35;;;19.30;61.90;;;;;;5147879;27;45473;-76
2023/10/20 12:19:32;;;;;;;1.35;1.25;;;19.30;61.90;;;;;;5148037;27;44784;-76
2023/10/20 12:21:59;;;;;;;1.80;1.70;;;19.30;62.00;;;;;;5148264;27;45370;-76
2023/10/20 12:24:26;;;;;;;3.45;1.52;;;19.20;61.90;;;;;;5147802;27;45301;-75
2023/10/20 12:26:55;;;;;;;2.72;1.50;;;19.20;61.80;;;;;;5148286;27;45549;-76
2023/10/20 12:29:22;;;;;;;2.47;1.48;;;19.20;61.90;;;;;;5147414;27;45421;-75
2023/10/20 12:31:50;;;;;;;2.03;1.60;;;19.20;61.90;;;;;;5147471;27;44687;-77
2023/10/20 12:34:18;;;;;;;2.53;1.63;;;19.20;61.80;;;;;;5146488;27;44994;-75
2023/10/20 12:36:45;;;;;;;2.05;1.45;;;19.20;61.80;;;;;;5133763;27;45825;-75
2023/10/20 12:39:17;;;;;;;3.30;2.67;;;19.20;62.50;;;;;;5125922;27;45234;-76
2023/10/20 12:41:44;;;;;;;2.30;1.30;;;19.20;61.80;;;;;;5126891;27;44710;-76
2023/10/20 12:44:11;;;;;;;1.73;1.52;;;19.20;61.80;;;;;;5128775;27;45412;-75
2023/10/20 12:46:38;;;;;;;3.08;1.55;;;19.20;61.70;;;;;;5130131;27;45553;-75
2023/10/20 12:49:07;;;;;;;1.17;1.08;;;19.20;61.70;;;;;;5130929;27;45318;-76
2023/10/20 12:51:34;;;;;;;1.15;1.15;;;19.20;61.70;;;;;;5128892;27;44963;-75
2023/10/20 12:54:02;;;;;;;1.58;1.48;;;19.20;61.70;;;;;;5127430;27;45416;-75
2023/10/20 12:56:29;;;;;;;3.45;1.40;;;19.20;61.70;;;;;;5130172;27;45422;-76
2023/10/20 12:58:56;;;;;;;1.10;1.00;;;19.20;61.70;;;;;;5128287;27;45306;-76
2023/10/20 13:01:23;;;;;;;3.90;1.50;;;19.20;61.70;;;;;;5130502;27;45280;-77
2023/10/20 13:03:50;;;;;;;1.30;1.20;;;19.20;61.70;;;;;;5130690;27;45436;-77
2023/10/20 13:06:19;;;;;;;2.97;1.30;;;19.20;61.70;;;;;;5130449;27;45388;-76
2023/10/20 13:08:46;;;;;;;2.17;1.48;;;19.10;61.80;;;;;;5147409;27;44684;-76
2023/10/20 13:11:13;;;;;;;2.70;1.48;;;19.10;61.70;;;;;;5151055;27;45329;-75
2023/10/20 13:13:40;;;;;;;2.03;1.50;;;19.10;61.70;;;;;;5151127;27;45419;-76
2023/10/20 13:16:08;;;;;;;1.58;1.25;;;19.10;61.80;;;;;;5152819;27;45274;-76
2023/10/20 13:18:35;;;;;;;3.42;1.65;;;19.10;61.80;;;;;;5151195;27;45280;-76
2023/10/20 13:21:02;;;;;;;1.77;1.50;;;19.10;61.70;;;;;;5151555;27;44688;-75